Time,TemperatureF,DewpointF,PressureIn,WindDirection,WindDirectionDegrees,WindSpeedMPH,WindSpeedGustMPH,Humidity,HourlyPrecipIn,Conditions,Clouds,dailyrainin,SoftwareType,DateUTC
2013-07-23 00:01:00,86.7,74.0,29.86,South,172,0.0,0.0,66,0.00,,---,0.00,VWS V14.00,2013-07-23 05:01:00,
2013-07-23 00:06:00,86.6,73.9,29.86,South,172,0.0,4.0,66,0.00,,---,0.00,VWS V14.00,2013-07-23 05:06:00,
2013-07-23 00:11:00,86.5,73.8,29.86,South,172,0.0,3.0,66,0.00,,---,0.00,VWS V14.00,2013-07-23 05:11:00,
2013-07-23 00:16:00,86.3,74.1,29.86,South,172,0.0,0.0,67,0.00,,---,0.00,VWS V14.00,2013-07-23 05:16:00,
2013-07-23 00:21:00,86.2,74.0,29.86,South,172,0.0,0.0,67,0.00,,---,0.00,VWS V14.00,2013-07-23 05:21:00,
2013-07-23 00:26:00,86.1,73.9,29.86,South,175,0.0,2.0,67,0.00,,---,0.00,VWS V14.00,2013-07-23 05:26:00,
2013-07-23 00:31:00,85.9,74.1,29.86,South,175,0.0,3.0,68,0.00,,---,0.00,VWS V14.00,2013-07-23 05:31:00,
2013-07-23 00:36:00,85.7,73.9,29.86,South,175,0.0,0.0,68,0.00,,---,0.00,VWS V14.00,2013-07-23 05:36:00,
2013-07-23 00:41:00,85.6,73.8,29.86,South,169,0.0,0.0,68,0.00,,---,0.00,VWS V14.00,2013-07-23 05:41:00,
2013-07-23 00:46:00,85.5,74.2,29.86,South,170,0.0,4.0,69,0.00,,---,0.00,VWS V14.00,2013-07-23 05:46:00,
2013-07-23 00:51:00,85.4,74.1,29.86,South,170,0.0,0.0,69,0.00,,---,0.00,VWS V14.00,2013-07-23 05:51:00,
2013-07-23 00:56:00,85.2,73.9,29.86,SSE,160,0.0,0.0,69,0.00,,---,0.00,VWS V14.00,2013-07-23 05:56:00,
2013-07-23 01:01:00,85.1,73.8,29.85,SSE,158,0.0,0.0,69,0.00,,---,0.00,VWS V14.00,2013-07-23 06:01:00,
2013-07-23 01:06:00,84.9,74.0,29.85,South,185,4.0,5.0,70,0.00,,---,0.00,VWS V14.00,2013-07-23 06:06:00,
2013-07-23 01:11:00,84.7,73.8,29.85,South,185,0.0,0.0,70,0.00,,---,0.00,VWS V14.00,2013-07-23 06:11:00,
2013-07-23 01:16:00,84.5,74.1,29.85,ESE,103,0.0,0.0,71,0.00,,---,0.00,VWS V14.00,2013-07-23 06:16:00,
2013-07-23 01:21:00,84.3,73.9,29.85,South,174,0.0,0.0,71,0.00,,---,0.00,VWS V14.00,2013-07-23 06:21:00,
2013-07-23 01:26:00,84.2,73.8,29.85,South,178,0.0,5.0,71,0.00,,---,0.00,VWS V14.00,2013-07-23 06:26:00,
2013-07-23 01:31:00,84.2,73.8,29.86,South,177,0.0,0.0,71,0.00,,---,0.00,VWS V14.00,2013-07-23 06:31:00,
2013-07-23 01:36:00,84.2,73.8,29.86,SE,135,0.0,5.0,71,0.00,,---,0.00,VWS V14.00,2013-07-23 06:36:00,
2013-07-23 01:41:00,84.0,74.0,29.86,SE,135,0.0,1.0,72,0.00,,---,0.00,VWS V14.00,2013-07-23 06:41:00,
2013-07-23 01:46:00,83.7,73.7,29.85,South,184,0.0,0.0,72,0.00,,---,0.00,VWS V14.00,2013-07-23 06:46:00,
2013-07-23 01:51:00,83.4,73.8,29.85,South,179,0.0,1.0,73,0.00,,---,0.00,VWS V14.00,2013-07-23 06:51:00,
2013-07-23 01:56:00,83.1,74.0,29.85,South,178,0.0,0.0,74,0.00,,---,0.00,VWS V14.00,2013-07-23 06:56:00,
2013-07-23 02:01:00,83.1,74.0,29.85,South,175,0.0,0.0,74,0.00,,---,0.00,VWS V14.00,2013-07-23 07:01:00,
2013-07-23 02:06:00,83.2,74.1,29.85,South,174,3.0,4.0,74,0.00,,---,0.00,VWS V14.00,2013-07-23 07:06:00,
2013-07-23 02:11:00,83.1,74.0,29.85,South,172,0.0,0.0,74,0.00,,---,0.00,VWS V14.00,2013-07-23 07:11:00,
2013-07-23 02:16:00,83.1,73.6,29.85,South,172,0.0,0.0,73,0.00,,---,0.00,VWS V14.00,2013-07-23 07:16:00,
2013-07-23 02:21:00,83.0,73.9,29.85,South,172,0.0,0.0,74,0.00,,---,0.00,VWS V14.00,2013-07-23 07:21:00,
2013-07-23 02:26:00,82.9,73.8,29.85,South,172,3.0,3.0,74,0.00,,---,0.00,VWS V14.00,2013-07-23 07:26:00,
2013-07-23 02:31:00,82.9,73.4,29.85,South,181,0.0,0.0,73,0.00,,---,0.00,VWS V14.00,2013-07-23 07:31:00,
2013-07-23 02:36:00,82.9,73.4,29.85,South,181,0.0,0.0,73,0.00,,---,0.00,VWS V14.00,2013-07-23 07:36:00,
2013-07-23 02:41:00,82.8,73.3,29.85,South,179,0.0,0.0,73,0.00,,---,0.00,VWS V14.00,2013-07-23 07:41:00,
2013-07-23 02:46:00,82.8,73.3,29.85,South,191,0.0,0.0,73,0.00,,---,0.00,VWS V14.00,2013-07-23 07:46:00,
2013-07-23 02:51:00,82.9,73.4,29.85,South,186,3.0,3.0,73,0.00,,---,0.00,VWS V14.00,2013-07-23 07:51:00,
2013-07-23 02:56:00,82.9,72.9,29.85,South,185,0.0,0.0,72,0.00,,---,0.00,VWS V14.00,2013-07-23 07:56:00,
2013-07-23 03:01:00,82.8,72.9,29.85,South,185,0.0,0.0,72,0.00,,---,0.00,VWS V14.00,2013-07-23 08:01:00,
2013-07-23 03:06:00,82.7,72.8,29.85,South,185,0.0,1.0,72,0.00,,---,0.00,VWS V14.00,2013-07-23 08:06:00,
2013-07-23 03:11:00,82.7,73.2,29.85,South,181,0.0,0.0,73,0.00,,---,0.00,VWS V14.00,2013-07-23 08:11:00,
2013-07-23 03:16:00,82.5,73.0,29.85,ESE,112,0.0,0.0,73,0.00,,---,0.00,VWS V14.00,2013-07-23 08:16:00,
2013-07-23 03:21:00,82.3,72.8,29.85,South,172,0.0,2.0,73,0.00,,---,0.00,VWS V14.00,2013-07-23 08:21:00,
2013-07-23 03:26:00,82.2,73.1,29.85,SSE,168,0.0,5.0,74,0.00,,---,0.00,VWS V14.00,2013-07-23 08:26:00,
2013-07-23 03:31:00,82.1,73.0,29.86,South,173,0.0,0.0,74,0.00,,---,0.00,VWS V14.00,2013-07-23 08:31:00,
2013-07-23 03:36:00,82.2,72.7,29.86,South,174,0.0,0.0,73,0.00,,---,0.00,VWS V14.00,2013-07-23 08:36:00,
2013-07-23 03:41:00,82.2,72.7,29.86,South,174,0.0,0.0,73,0.00,,---,0.00,VWS V14.00,2013-07-23 08:41:00,
2013-07-23 03:46:00,82.2,72.7,29.85,South,174,0.0,1.0,73,0.00,,---,0.00,VWS V14.00,2013-07-23 08:46:00,
2013-07-23 03:51:00,82.1,72.2,29.85,South,174,0.0,1.0,72,0.00,,---,0.00,VWS V14.00,2013-07-23 08:51:00,
2013-07-23 03:56:00,82.1,72.6,29.85,South,174,0.0,0.0,73,0.00,,---,0.00,VWS V14.00,2013-07-23 08:56:00,
2013-07-23 04:01:00,82.0,72.5,29.86,South,174,0.0,4.0,73,0.00,,---,0.00,VWS V14.00,2013-07-23 09:01:00,
2013-07-23 04:06:00,81.9,72.4,29.86,South,174,1.0,1.0,73,0.00,,---,0.00,VWS V14.00,2013-07-23 09:06:00,
2013-07-23 04:11:00,81.9,72.4,29.86,South,174,0.0,1.0,73,0.00,,---,0.00,VWS V14.00,2013-07-23 09:11:00,
2013-07-23 04:16:00,81.9,72.4,29.86,South,174,0.0,0.0,73,0.00,,---,0.00,VWS V14.00,2013-07-23 09:16:00,
2013-07-23 04:21:00,81.9,72.0,29.86,South,175,0.0,0.0,72,0.00,,---,0.00,VWS V14.00,2013-07-23 09:21:00,
2013-07-23 04:26:00,81.9,72.0,29.86,South,175,0.0,4.0,72,0.00,,---,0.00,VWS V14.00,2013-07-23 09:26:00,
2013-07-23 04:31:00,81.8,71.9,29.86,South,175,0.0,0.0,72,0.00,,---,0.00,VWS V14.00,2013-07-23 09:31:00,
2013-07-23 04:36:00,81.7,72.2,29.86,South,175,0.0,0.0,73,0.00,,---,0.00,VWS V14.00,2013-07-23 09:36:00,
2013-07-23 04:41:00,81.6,72.1,29.86,South,175,0.0,0.0,73,0.00,,---,0.00,VWS V14.00,2013-07-23 09:41:00,
2013-07-23 04:46:00,81.6,72.1,29.86,South,175,0.0,1.0,73,0.00,,---,0.00,VWS V14.00,2013-07-23 09:46:00,
2013-07-23 04:51:00,81.5,72.0,29.86,South,175,0.0,0.0,73,0.00,,---,0.00,VWS V14.00,2013-07-23 09:51:00,
2013-07-23 04:56:00,81.3,71.8,29.86,South,175,0.0,0.0,73,0.00,,---,0.00,VWS V14.00,2013-07-23 09:56:00,
2013-07-23 05:01:00,81.3,71.8,29.86,South,175,0.0,0.0,73,0.00,,---,0.00,VWS V14.00,2013-07-23 10:01:00,
2013-07-23 05:06:00,81.2,71.7,29.86,South,175,0.0,0.0,73,0.00,,---,0.00,VWS V14.00,2013-07-23 10:06:00,
2013-07-23 05:11:00,81.1,71.6,29.86,South,175,0.0,0.0,73,0.00,,---,0.00,VWS V14.00,2013-07-23 10:11:00,
2013-07-23 05:16:00,80.9,71.4,29.86,South,175,0.0,0.0,73,0.00,,---,0.00,VWS V14.00,2013-07-23 10:16:00,
2013-07-23 05:21:00,80.8,71.7,29.86,South,175,0.0,0.0,74,0.00,,---,0.00,VWS V14.00,2013-07-23 10:21:00,
2013-07-23 05:26:00,80.6,71.6,29.86,South,175,0.0,0.0,74,0.00,,---,0.00,VWS V14.00,2013-07-23 10:26:00,
2013-07-23 05:31:00,80.5,71.5,29.86,South,175,0.0,1.0,74,0.00,,---,0.00,VWS V14.00,2013-07-23 10:31:00,
2013-07-23 05:36:00,80.4,71.4,29.86,South,175,0.0,0.0,74,0.00,,---,0.00,VWS V14.00,2013-07-23 10:36:00,
2013-07-23 05:41:00,80.3,71.7,29.86,South,175,0.0,0.0,75,0.00,,---,0.00,VWS V14.00,2013-07-23 10:41:00,
2013-07-23 05:46:00,80.2,71.6,29.86,South,175,0.0,0.0,75,0.00,,---,0.00,VWS V14.00,2013-07-23 10:46:00,
2013-07-23 05:51:00,80.2,71.6,29.86,South,175,0.0,0.0,75,0.00,,---,0.00,VWS V14.00,2013-07-23 10:51:00,
2013-07-23 05:56:00,80.2,71.6,29.86,South,175,0.0,0.0,75,0.00,,---,0.00,VWS V14.00,2013-07-23 10:56:00,
2013-07-23 06:01:00,80.2,71.6,29.86,South,175,0.0,1.0,75,0.00,,---,0.00,VWS V14.00,2013-07-23 11:01:00,
2013-07-23 06:06:00,80.2,71.6,29.86,South,175,0.0,0.0,75,0.00,,---,0.00,VWS V14.00,2013-07-23 11:06:00,
2013-07-23 06:11:00,80.2,71.6,29.86,South,175,0.0,0.0,75,0.00,,---,0.00,VWS V14.00,2013-07-23 11:11:00,
2013-07-23 06:16:00,80.1,71.5,29.86,South,175,0.0,0.0,75,0.00,,---,0.00,VWS V14.00,2013-07-23 11:16:00,
2013-07-23 06:21:00,79.8,71.6,29.86,South,175,0.0,0.0,76,0.00,,---,0.00,VWS V14.00,2013-07-23 11:21:00,
2013-07-23 06:26:00,79.7,71.5,29.86,South,175,0.0,0.0,76,0.00,,---,0.00,VWS V14.00,2013-07-23 11:26:00,
2013-07-23 06:31:00,79.5,71.7,29.87,South,175,0.0,0.0,77,0.00,,---,0.00,VWS V14.00,2013-07-23 11:31:00,
2013-07-23 06:36:00,79.4,71.6,29.87,South,175,0.0,0.0,77,0.00,,---,0.00,VWS V14.00,2013-07-23 11:36:00,
2013-07-23 06:41:00,79.3,71.5,29.87,South,175,0.0,0.0,77,0.00,,---,0.00,VWS V14.00,2013-07-23 11:41:00,
2013-07-23 06:46:00,79.2,71.4,29.88,South,175,0.0,0.0,77,0.00,,---,0.00,VWS V14.00,2013-07-23 11:46:00,
2013-07-23 06:51:00,79.2,71.4,29.88,South,175,0.0,0.0,77,0.00,,---,0.00,VWS V14.00,2013-07-23 11:51:00,
2013-07-23 06:56:00,79.3,71.5,29.88,South,175,0.0,1.0,77,0.00,,---,0.00,VWS V14.00,2013-07-23 11:56:00,
2013-07-23 07:01:00,79.4,71.6,29.88,South,175,0.0,0.0,77,0.00,,---,0.00,VWS V14.00,2013-07-23 12:01:00,
2013-07-23 07:06:00,79.5,71.7,29.88,South,175,0.0,0.0,77,0.00,,---,0.00,VWS V14.00,2013-07-23 12:06:00,
2013-07-23 07:11:00,79.5,71.7,29.88,South,175,0.0,0.0,77,0.00,,---,0.00,VWS V14.00,2013-07-23 12:11:00,
2013-07-23 07:16:00,79.6,71.8,29.88,South,176,1.0,2.0,77,0.00,,---,0.00,VWS V14.00,2013-07-23 12:16:00,
2013-07-23 07:21:00,79.7,71.9,29.88,South,175,0.0,1.0,77,0.00,,---,0.00,VWS V14.00,2013-07-23 12:21:00,
2013-07-23 07:26:00,79.8,71.6,29.88,SSW,198,0.0,4.0,76,0.00,,---,0.00,VWS V14.00,2013-07-23 12:26:00,
2013-07-23 07:31:00,80.0,71.8,29.88,South,188,0.0,0.0,76,0.00,,---,0.00,VWS V14.00,2013-07-23 12:31:00,
2013-07-23 07:36:00,80.2,71.9,29.88,SSW,195,0.0,0.0,76,0.00,,---,0.00,VWS V14.00,2013-07-23 12:36:00,
2013-07-23 07:41:00,80.4,72.2,29.88,South,172,0.0,2.0,76,0.00,,---,0.00,VWS V14.00,2013-07-23 12:41:00,
2013-07-23 07:46:00,80.6,71.9,29.88,South,186,0.0,2.0,75,0.00,,---,0.00,VWS V14.00,2013-07-23 12:46:00,
2013-07-23 07:51:00,80.7,72.0,29.88,South,181,0.0,6.0,75,0.00,,---,0.00,VWS V14.00,2013-07-23 12:51:00,
2013-07-23 07:56:00,80.9,72.2,29.88,South,186,4.0,4.0,75,0.00,,---,0.00,VWS V14.00,2013-07-23 12:56:00,
2013-07-23 08:01:00,81.1,72.4,29.88,South,182,0.0,1.0,75,0.00,,---,0.00,VWS V14.00,2013-07-23 13:01:00,
2013-07-23 08:06:00,81.2,72.5,29.88,South,191,0.0,4.0,75,0.00,,---,0.00,VWS V14.00,2013-07-23 13:06:00,
2013-07-23 08:12:00,81.4,72.7,29.88,South,176,3.0,3.0,75,0.00,,---,0.00,VWS V14.00,2013-07-23 13:12:00,
2013-07-23 08:17:00,81.6,72.5,29.89,South,174,1.0,1.0,74,0.00,,---,0.00,VWS V14.00,2013-07-23 13:17:00,
2013-07-23 08:22:00,81.8,72.7,29.89,South,186,4.0,5.0,74,0.00,,---,0.00,VWS V14.00,2013-07-23 13:22:00,
2013-07-23 08:27:00,82.0,72.5,29.89,South,186,0.0,6.0,73,0.00,,---,0.00,VWS V14.00,2013-07-23 13:27:00,
2013-07-23 08:32:00,82.4,72.9,29.89,South,179,3.0,4.0,73,0.00,,---,0.00,VWS V14.00,2013-07-23 13:32:00,
2013-07-23 08:37:00,82.5,73.0,29.89,SSW,196,0.0,8.0,73,0.00,,---,0.00,VWS V14.00,2013-07-23 13:37:00,
2013-07-23 08:42:00,82.8,73.3,29.89,South,188,0.0,0.0,73,0.00,,---,0.00,VWS V14.00,2013-07-23 13:42:00,
2013-07-23 08:47:00,83.1,73.1,29.90,South,189,0.0,0.0,72,0.00,,---,0.00,VWS V14.00,2013-07-23 13:47:00,
2013-07-23 08:52:00,83.4,73.4,29.90,SSW,199,0.0,7.0,72,0.00,,---,0.00,VWS V14.00,2013-07-23 13:52:00,
2013-07-23 08:57:00,83.8,73.4,29.90,SW,222,0.0,0.0,71,0.00,,---,0.00,VWS V14.00,2013-07-23 13:57:00,
2013-07-23 09:02:00,84.1,73.3,29.90,SSE,167,0.0,6.0,70,0.00,,---,0.00,VWS V14.00,2013-07-23 14:02:00,
2013-07-23 09:07:00,84.4,73.6,29.90,SSW,198,0.0,6.0,70,0.00,,---,0.00,VWS V14.00,2013-07-23 14:07:00,
2013-07-23 09:12:00,84.7,73.4,29.90,South,181,0.0,0.0,69,0.00,,---,0.00,VWS V14.00,2013-07-23 14:12:00,
2013-07-23 09:17:00,85.1,73.4,29.91,West,281,4.0,6.0,68,0.00,,---,0.00,VWS V14.00,2013-07-23 14:17:00,
2013-07-23 09:22:00,85.6,73.4,29.91,WNW,290,6.0,12.0,67,0.00,,---,0.00,VWS V14.00,2013-07-23 14:22:00,
2013-07-23 09:27:00,85.8,73.1,29.91,SSW,197,0.0,10.0,66,0.00,,---,0.00,VWS V14.00,2013-07-23 14:27:00,
2013-07-23 09:32:00,86.1,73.4,29.91,SSW,192,0.0,9.0,66,0.00,,---,0.00,VWS V14.00,2013-07-23 14:32:00,
2013-07-23 09:37:00,86.4,73.7,29.91,West,267,1.0,7.0,66,0.00,,---,0.00,VWS V14.00,2013-07-23 14:37:00,
2013-07-23 09:42:00,86.7,73.5,29.91,WSW,251,0.0,0.0,65,0.00,,---,0.00,VWS V14.00,2013-07-23 14:42:00,
2013-07-23 09:48:00,87.0,74.3,29.91,SSW,198,0.0,0.0,66,0.00,,---,0.00,VWS V14.00,2013-07-23 14:48:00,
2013-07-23 09:53:00,87.5,74.3,29.91,SW,221,0.0,2.0,65,0.00,,---,0.00,VWS V14.00,2013-07-23 14:53:00,
2013-07-23 09:58:00,87.7,73.6,29.90,West,271,6.0,6.0,63,0.00,,---,0.00,VWS V14.00,2013-07-23 14:58:00,
2013-07-23 10:03:00,87.7,73.6,29.90,West,262,5.0,8.0,63,0.00,,---,0.00,VWS V14.00,2013-07-23 15:03:00,
2013-07-23 10:08:00,87.7,73.6,29.90,West,270,2.0,7.0,63,0.00,,---,0.00,VWS V14.00,2013-07-23 15:08:00,
2013-07-23 10:13:00,87.9,74.2,29.89,SW,221,0.0,1.0,64,0.00,,---,0.00,VWS V14.00,2013-07-23 15:13:00,
2013-07-23 10:18:00,88.2,73.6,29.89,WSW,237,1.0,6.0,62,0.00,,---,0.00,VWS V14.00,2013-07-23 15:18:00,
2013-07-23 10:23:00,88.5,73.8,29.89,SSW,209,0.0,7.0,62,0.00,,---,0.00,VWS V14.00,2013-07-23 15:23:00,
2013-07-23 10:28:00,88.7,74.5,29.89,SW,233,0.0,6.0,63,0.00,,---,0.00,VWS V14.00,2013-07-23 15:28:00,
2013-07-23 10:33:00,89.3,74.6,29.89,SSW,198,0.0,2.0,62,0.00,,---,0.00,VWS V14.00,2013-07-23 15:33:00,
2013-07-23 10:38:00,89.7,74.5,29.89,West,259,3.0,3.0,61,0.00,,---,0.00,VWS V14.00,2013-07-23 15:38:00,
2013-07-23 10:43:00,89.5,74.8,29.89,SW,235,0.0,6.0,62,0.00,,---,0.00,VWS V14.00,2013-07-23 15:43:00,
2013-07-23 10:48:00,89.8,75.1,29.89,SW,214,0.0,1.0,62,0.00,,---,0.00,VWS V14.00,2013-07-23 15:48:00,
2013-07-23 10:53:00,90.2,74.4,29.89,South,181,0.0,3.0,60,0.00,,---,0.00,VWS V14.00,2013-07-23 15:53:00,
2013-07-23 10:58:00,90.4,74.1,29.89,West,259,0.0,3.0,59,0.00,,---,0.00,VWS V14.00,2013-07-23 15:58:00,
2013-07-23 11:04:00,90.9,74.6,29.89,South,187,0.0,6.0,59,0.00,,---,0.00,VWS V14.00,2013-07-23 16:04:00,
2013-07-23 11:09:00,91.3,75.0,29.89,South,184,0.0,0.0,59,0.00,,---,0.00,VWS V14.00,2013-07-23 16:09:00,
2013-07-23 11:14:00,91.3,74.5,29.89,SSW,205,0.0,0.0,58,0.00,,---,0.00,VWS V14.00,2013-07-23 16:14:00,
2013-07-23 11:19:00,91.9,75.0,29.89,South,184,0.0,2.0,58,0.00,,---,0.00,VWS V14.00,2013-07-23 16:19:00,
2013-07-23 11:24:00,92.3,74.9,29.89,WSW,256,0.0,1.0,57,0.00,,---,0.00,VWS V14.00,2013-07-23 16:24:00,
2013-07-23 11:29:00,92.2,74.8,29.89,West,262,0.0,5.0,57,0.00,,---,0.00,VWS V14.00,2013-07-23 16:29:00,
2013-07-23 11:35:00,92.7,75.8,29.89,West,276,0.0,0.0,58,0.00,,---,0.00,VWS V14.00,2013-07-23 16:35:00,
2013-07-23 11:40:00,94.2,75.6,29.89,SSW,204,0.0,3.0,55,0.00,,---,0.00,VWS V14.00,2013-07-23 16:40:00,
2013-07-23 11:45:00,93.7,74.6,29.90,WSW,252,0.0,7.0,54,0.00,,---,0.00,VWS V14.00,2013-07-23 16:45:00,
2013-07-23 11:50:00,93.6,74.5,29.90,WNW,293,0.0,1.0,54,0.00,,---,0.00,VWS V14.00,2013-07-23 16:50:00,
2013-07-23 11:55:00,94.1,75.5,29.90,West,274,0.0,0.0,55,0.00,,---,0.00,VWS V14.00,2013-07-23 16:55:00,
2013-07-23 12:00:00,94.5,74.7,29.89,West,268,0.0,7.0,53,0.00,,---,0.00,VWS V14.00,2013-07-23 17:00:00,
2013-07-23 12:05:00,94.1,74.9,29.89,WNW,295,0.0,4.0,54,0.00,,---,0.00,VWS V14.00,2013-07-23 17:05:00,
2013-07-23 12:10:00,94.1,74.9,29.89,WNW,290,0.0,7.0,54,0.00,,---,0.00,VWS V14.00,2013-07-23 17:10:00,
2013-07-23 12:15:00,94.1,74.4,29.89,West,280,0.0,5.0,53,0.00,,---,0.00,VWS V14.00,2013-07-23 17:15:00,
2013-07-23 12:20:00,95.2,75.4,29.89,WNW,288,1.0,2.0,53,0.00,,---,0.00,VWS V14.00,2013-07-23 17:20:00,
2013-07-23 12:25:00,95.4,75.6,29.89,NNW,328,0.0,1.0,53,0.00,,---,0.00,VWS V14.00,2013-07-23 17:25:00,
2013-07-23 12:30:00,95.1,74.1,29.89,WSW,245,4.0,10.0,51,0.00,,---,0.00,VWS V14.00,2013-07-23 17:30:00,
2013-07-23 12:35:00,94.6,74.8,29.89,West,264,0.0,0.0,53,0.00,,---,0.00,VWS V14.00,2013-07-23 17:35:00,
2013-07-23 12:40:00,95.3,74.9,29.89,West,272,3.0,3.0,52,0.00,,---,0.00,VWS V14.00,2013-07-23 17:40:00,
2013-07-23 12:45:00,95.1,74.1,29.89,West,273,0.0,1.0,51,0.00,,---,0.00,VWS V14.00,2013-07-23 17:45:00,
2013-07-23 12:50:00,95.4,73.8,29.89,West,280,0.0,1.0,50,0.00,,---,0.00,VWS V14.00,2013-07-23 17:50:00,
2013-07-23 12:57:00,97.2,74.9,29.89,West,259,0.0,4.0,49,0.00,,---,0.00,VWS V14.00,2013-07-23 17:57:00,
2013-07-23 13:02:00,96.2,73.3,29.89,West,269,4.0,4.0,48,0.00,,---,0.00,VWS V14.00,2013-07-23 18:02:00,
2013-07-23 13:07:00,95.5,73.9,29.89,WSW,252,0.0,0.0,50,0.00,,---,0.00,VWS V14.00,2013-07-23 18:07:00,
2013-07-23 13:12:00,97.8,74.2,29.89,WSW,252,0.0,0.0,47,0.00,,---,0.00,VWS V14.00,2013-07-23 18:12:00,
2013-07-23 13:17:00,97.0,73.4,29.87,SSW,192,0.0,5.0,47,0.00,,---,0.00,VWS V14.00,2013-07-23 18:17:00,
2013-07-23 13:23:00,96.8,75.1,29.87,South,174,0.0,2.0,50,0.00,,---,0.00,VWS V14.00,2013-07-23 18:23:00,
2013-07-23 13:29:00,96.6,73.7,29.86,South,190,0.0,2.0,48,0.00,,---,0.00,VWS V14.00,2013-07-23 18:29:00,
2013-07-23 13:34:00,96.1,73.9,29.86,SE,144,0.0,1.0,49,0.00,,---,0.00,VWS V14.00,2013-07-23 18:34:00,
2013-07-23 13:39:00,96.9,74.0,29.86,ESE,104,0.0,6.0,48,0.00,,---,0.00,VWS V14.00,2013-07-23 18:39:00,
2013-07-23 13:44:00,98.1,74.4,29.86,South,172,0.0,0.0,47,0.00,,---,0.00,VWS V14.00,2013-07-23 18:44:00,
2013-07-23 13:49:00,98.3,73.3,29.86,South,187,0.0,3.0,45,0.00,,---,0.00,VWS V14.00,2013-07-23 18:49:00,
2013-07-23 13:54:00,98.2,75.2,29.86,WSW,257,0.0,0.0,48,0.00,,---,0.00,VWS V14.00,2013-07-23 18:54:00,
2013-07-23 13:59:00,98.3,72.7,29.86,WNW,285,0.0,1.0,44,0.00,,---,0.00,VWS V14.00,2013-07-23 18:59:00,
2013-07-23 14:04:00,97.4,73.2,29.86,West,275,0.0,2.0,46,0.00,,---,0.00,VWS V14.00,2013-07-23 19:04:00,
2013-07-23 14:09:00,97.2,73.6,29.86,SSE,164,0.0,1.0,47,0.00,,---,0.00,VWS V14.00,2013-07-23 19:09:00,
2013-07-23 14:15:00,98.1,72.5,29.86,WSW,240,0.0,1.0,44,0.00,,---,0.00,VWS V14.00,2013-07-23 19:15:00,
2013-07-23 14:21:00,99.2,74.1,29.86,NW,324,0.0,0.0,45,0.00,,---,0.00,VWS V14.00,2013-07-23 19:21:00,
2013-07-23 14:26:00,98.5,71.5,29.86,South,180,0.0,2.0,42,0.00,,---,0.00,VWS V14.00,2013-07-23 19:26:00,
2013-07-23 14:31:00,97.3,71.8,29.86,WSW,252,3.0,3.0,44,0.00,,---,0.00,VWS V14.00,2013-07-23 19:31:00,
2013-07-23 14:36:00,97.5,74.5,29.86,WSW,255,0.0,0.0,48,0.00,,---,0.00,VWS V14.00,2013-07-23 19:36:00,
2013-07-23 14:41:00,100.4,74.6,29.86,NNE,13,0.0,6.0,44,0.00,,---,0.00,VWS V14.00,2013-07-23 19:41:00,
2013-07-23 14:48:00,100.6,74.0,29.85,NNE,15,0.0,0.0,43,0.00,,---,0.00,VWS V14.00,2013-07-23 19:48:00,
2013-07-23 14:53:00,100.3,72.4,29.85,North,0,0.0,1.0,41,0.00,,---,0.00,VWS V14.00,2013-07-23 19:53:00,
2013-07-23 14:58:00,100.0,74.9,29.84,North,0,0.0,0.0,45,0.00,,---,0.00,VWS V14.00,2013-07-23 19:58:00,
2013-07-23 15:03:00,98.8,73.1,29.84,ESE,120,0.0,0.0,44,0.00,,---,0.00,VWS V14.00,2013-07-23 20:03:00,
2013-07-23 15:09:00,98.2,73.2,29.84,SE,126,0.0,0.0,45,0.00,,---,0.00,VWS V14.00,2013-07-23 20:09:00,
2013-07-23 15:14:00,99.4,73.7,29.84,SE,127,0.0,0.0,44,0.00,,---,0.00,VWS V14.00,2013-07-23 20:14:00,
2013-07-23 15:19:00,98.6,72.2,29.84,South,182,0.0,5.0,43,0.00,,---,0.00,VWS V14.00,2013-07-23 20:19:00,
2013-07-23 15:24:00,98.3,72.7,29.84,South,179,0.0,0.0,44,0.00,,---,0.00,VWS V14.00,2013-07-23 20:24:00,
2013-07-23 15:30:00,98.1,73.8,29.83,West,261,2.0,2.0,46,0.00,,---,0.00,VWS V14.00,2013-07-23 20:30:00,
2013-07-23 15:35:00,98.5,74.8,29.83,West,263,0.0,0.0,47,0.00,,---,0.00,VWS V14.00,2013-07-23 20:35:00,
2013-07-23 15:41:00,99.1,73.4,29.83,South,183,0.0,4.0,44,0.00,,---,0.00,VWS V14.00,2013-07-23 20:41:00,
2013-07-23 15:46:00,99.0,74.0,29.83,ESE,107,0.0,2.0,45,0.00,,---,0.00,VWS V14.00,2013-07-23 20:46:00,
2013-07-23 15:51:00,98.4,74.1,29.83,SW,230,0.0,2.0,46,0.00,,---,0.00,VWS V14.00,2013-07-23 20:51:00,
2013-07-23 15:57:00,98.3,74.0,29.83,ESE,107,1.0,4.0,46,0.00,,---,0.00,VWS V14.00,2013-07-23 20:57:00,
2013-07-23 16:02:00,99.0,75.3,29.82,South,174,0.0,1.0,47,0.00,,---,0.00,VWS V14.00,2013-07-23 21:02:00,
2013-07-23 16:07:00,99.5,74.4,29.82,SSW,192,1.0,7.0,45,0.00,,---,0.00,VWS V14.00,2013-07-23 21:07:00,
2013-07-23 16:13:00,99.2,74.8,29.81,SSW,195,0.0,1.0,46,0.00,,---,0.00,VWS V14.00,2013-07-23 21:13:00,
2013-07-23 16:18:00,99.2,74.8,29.81,West,264,2.0,3.0,46,0.00,,---,0.00,VWS V14.00,2013-07-23 21:18:00,
2013-07-23 16:23:00,98.8,75.1,29.81,West,260,0.0,0.0,47,0.00,,---,0.00,VWS V14.00,2013-07-23 21:23:00,
2013-07-23 16:28:00,99.1,74.7,29.81,South,173,0.0,0.0,46,0.00,,---,0.00,VWS V14.00,2013-07-23 21:28:00,
2013-07-23 16:33:00,99.2,74.8,29.81,SSW,194,0.0,0.0,46,0.00,,---,0.00,VWS V14.00,2013-07-23 21:33:00,
2013-07-23 16:38:00,99.3,73.6,29.81,West,276,0.0,4.0,44,0.00,,---,0.00,VWS V14.00,2013-07-23 21:38:00,
2013-07-23 16:43:00,99.0,74.0,29.81,WSW,245,0.0,4.0,45,0.00,,---,0.00,VWS V14.00,2013-07-23 21:43:00,
2013-07-23 16:48:00,98.8,73.8,29.81,SSW,207,0.0,0.0,45,0.00,,---,0.00,VWS V14.00,2013-07-23 21:48:00,
2013-07-23 16:54:00,99.6,73.1,29.81,West,269,5.0,6.0,43,0.00,,---,0.00,VWS V14.00,2013-07-23 21:54:00,
2013-07-23 17:00:00,99.3,74.2,29.80,SSW,212,0.0,0.0,45,0.00,,---,0.00,VWS V14.00,2013-07-23 22:00:00,
2013-07-23 17:05:00,99.2,73.5,29.80,South,174,0.0,6.0,44,0.00,,---,0.00,VWS V14.00,2013-07-23 22:05:00,
2013-07-23 17:10:00,99.0,74.0,29.80,South,184,0.0,5.0,45,0.00,,---,0.00,VWS V14.00,2013-07-23 22:10:00,
2013-07-23 17:16:00,98.9,75.2,29.80,South,179,0.0,0.0,47,0.00,,---,0.00,VWS V14.00,2013-07-23 22:16:00,
2013-07-23 17:21:00,99.8,73.3,29.80,West,267,0.0,7.0,43,0.00,,---,0.00,VWS V14.00,2013-07-23 22:21:00,
2013-07-23 17:26:00,99.6,73.8,29.80,SW,221,3.0,10.0,44,0.00,,---,0.00,VWS V14.00,2013-07-23 22:26:00,
2013-07-23 17:31:00,99.4,73.7,29.80,West,271,1.0,1.0,44,0.00,,---,0.00,VWS V14.00,2013-07-23 22:31:00,
2013-07-23 17:36:00,99.1,72.7,29.80,WSW,242,3.0,4.0,43,0.00,,---,0.00,VWS V14.00,2013-07-23 22:36:00,
2013-07-23 17:41:00,99.0,73.3,29.80,WSW,240,0.0,8.0,44,0.00,,---,0.00,VWS V14.00,2013-07-23 22:41:00,
2013-07-23 17:48:00,99.1,74.1,29.80,West,269,0.0,0.0,45,0.00,,---,0.00,VWS V14.00,2013-07-23 22:48:00,
2013-07-23 17:53:00,98.9,73.2,29.80,SSW,194,0.0,12.0,44,0.00,,---,0.00,VWS V14.00,2013-07-23 22:53:00,
2013-07-23 17:58:00,98.5,72.8,29.80,WSW,255,1.0,4.0,44,0.00,,---,0.00,VWS V14.00,2013-07-23 22:58:00,
2013-07-23 18:03:00,98.6,73.6,29.80,West,259,0.0,5.0,45,0.00,,---,0.00,VWS V14.00,2013-07-23 23:03:00,
2013-07-23 18:08:00,98.9,73.2,29.80,WSW,257,3.0,3.0,44,0.00,,---,0.00,VWS V14.00,2013-07-23 23:08:00,
2013-07-23 18:13:00,98.8,73.8,29.79,West,263,0.0,4.0,45,0.00,,---,0.00,VWS V14.00,2013-07-23 23:13:00,
2013-07-23 18:18:00,98.4,73.4,29.79,SSE,160,0.0,3.0,45,0.00,,---,0.00,VWS V14.00,2013-07-23 23:18:00,
2013-07-23 18:23:00,98.1,73.1,29.79,SW,236,5.0,5.0,45,0.00,,---,0.00,VWS V14.00,2013-07-23 23:23:00,
2013-07-23 18:28:00,97.7,72.8,29.78,West,264,0.0,6.0,45,0.00,,---,0.00,VWS V14.00,2013-07-23 23:28:00,
2013-07-23 18:33:00,97.6,72.7,29.78,WSW,256,1.0,1.0,45,0.00,,---,0.00,VWS V14.00,2013-07-23 23:33:00,
2013-07-23 18:38:00,97.5,72.6,29.78,WSW,255,5.0,8.0,45,0.00,,---,0.00,VWS V14.00,2013-07-23 23:38:00,
2013-07-23 18:45:00,97.3,73.1,29.78,West,263,1.0,1.0,46,0.00,,---,0.00,VWS V14.00,2013-07-23 23:45:00,
2013-07-23 18:51:00,97.2,73.6,29.78,WSW,257,12.0,12.0,47,0.00,,---,0.00,VWS V14.00,2013-07-23 23:51:00,
2013-07-23 18:58:00,96.6,73.7,29.78,West,277,0.0,0.0,48,0.00,,---,0.00,VWS V14.00,2013-07-23 23:58:00,
2013-07-23 19:03:00,96.8,73.9,29.78,West,268,2.0,5.0,48,0.00,,---,0.00,VWS V14.00,2013-07-24 00:03:00,
2013-07-23 19:09:00,96.6,73.7,29.78,SW,233,0.0,1.0,48,0.00,,---,0.00,VWS V14.00,2013-07-24 00:09:00,
2013-07-23 19:15:00,96.4,74.1,29.78,West,269,0.0,2.0,49,0.00,,---,0.00,VWS V14.00,2013-07-24 00:15:00,
2013-07-23 19:20:00,96.3,74.0,29.78,West,271,6.0,7.0,49,0.00,,---,0.00,VWS V14.00,2013-07-24 00:20:00,
2013-07-23 19:26:00,96.2,74.6,29.78,West,269,0.0,0.0,50,0.00,,---,0.00,VWS V14.00,2013-07-24 00:26:00,
2013-07-23 19:31:00,96.1,73.2,29.78,SW,218,0.0,1.0,48,0.00,,---,0.00,VWS V14.00,2013-07-24 00:31:00,
2013-07-23 19:36:00,95.8,73.6,29.78,West,262,0.0,3.0,49,0.00,,---,0.00,VWS V14.00,2013-07-24 00:36:00,
2013-07-23 19:41:00,95.7,73.5,29.78,WSW,250,0.0,2.0,49,0.00,,---,0.00,VWS V14.00,2013-07-24 00:41:00,
2013-07-23 19:47:00,95.5,73.9,29.78,SSW,209,0.0,1.0,50,0.00,,---,0.00,VWS V14.00,2013-07-24 00:47:00,
2013-07-23 19:52:00,95.1,73.6,29.78,SW,220,0.0,2.0,50,0.00,,---,0.00,VWS V14.00,2013-07-24 00:52:00,
2013-07-23 19:57:00,94.9,73.9,29.78,South,188,0.0,0.0,51,0.00,,---,0.00,VWS V14.00,2013-07-24 00:57:00,
2013-07-23 20:02:00,95.0,74.6,29.78,South,188,0.0,0.0,52,0.00,,---,0.00,VWS V14.00,2013-07-24 01:02:00,
2013-07-23 20:07:00,95.0,74.6,29.78,South,188,0.0,0.0,52,0.00,,---,0.00,VWS V14.00,2013-07-24 01:07:00,
2013-07-23 20:13:00,94.4,74.1,29.78,West,259,0.0,0.0,52,0.00,,---,0.00,VWS V14.00,2013-07-24 01:13:00,
2013-07-23 20:18:00,93.7,74.0,29.78,South,186,0.0,0.0,53,0.00,,---,0.00,VWS V14.00,2013-07-24 01:18:00,
2013-07-23 20:25:00,93.3,74.2,29.78,SW,236,0.0,0.0,54,0.00,,---,0.00,VWS V14.00,2013-07-24 01:25:00,
2013-07-23 20:30:00,93.1,74.0,29.79,West,259,0.0,0.0,54,0.00,,---,0.00,VWS V14.00,2013-07-24 01:30:00,
2013-07-23 20:35:00,92.9,74.4,29.79,SW,222,0.0,0.0,55,0.00,,---,0.00,VWS V14.00,2013-07-24 01:35:00,
2013-07-23 20:41:00,92.8,74.3,29.79,WSW,243,0.0,0.0,55,0.00,,---,0.00,VWS V14.00,2013-07-24 01:41:00,
2013-07-23 20:47:00,92.7,74.2,29.79,South,176,0.0,0.0,55,0.00,,---,0.00,VWS V14.00,2013-07-24 01:47:00,
2013-07-23 20:52:00,92.6,74.1,29.79,South,176,0.0,0.0,55,0.00,,---,0.00,VWS V14.00,2013-07-24 01:52:00,
2013-07-23 20:57:00,92.6,74.1,29.79,South,176,0.0,0.0,55,0.00,,---,0.00,VWS V14.00,2013-07-24 01:57:00,
2013-07-23 21:02:00,92.5,74.0,29.80,South,176,0.0,0.0,55,0.00,,---,0.00,VWS V14.00,2013-07-24 02:02:00,
2013-07-23 21:07:00,92.5,74.0,29.80,South,176,0.0,0.0,55,0.00,,---,0.00,VWS V14.00,2013-07-24 02:07:00,
2013-07-23 21:12:00,92.4,74.4,29.80,South,176,0.0,0.0,56,0.00,,---,0.00,VWS V14.00,2013-07-24 02:12:00,
2013-07-23 21:17:00,92.3,74.3,29.79,South,176,0.0,0.0,56,0.00,,---,0.00,VWS V14.00,2013-07-24 02:17:00,
2013-07-23 21:22:00,92.1,74.2,29.79,South,176,0.0,0.0,56,0.00,,---,0.00,VWS V14.00,2013-07-24 02:22:00,
2013-07-23 21:27:00,91.9,74.0,29.79,South,176,0.0,0.0,56,0.00,,---,0.00,VWS V14.00,2013-07-24 02:27:00,
2013-07-23 21:32:00,91.4,74.0,29.78,South,174,0.0,2.0,57,0.00,,---,0.00,VWS V14.00,2013-07-24 02:32:00,
2013-07-23 21:37:00,91.1,74.3,29.78,South,179,0.0,0.0,58,0.00,,---,0.00,VWS V14.00,2013-07-24 02:37:00,
2013-07-23 21:42:00,90.9,74.1,29.78,South,182,0.0,0.0,58,0.00,,---,0.00,VWS V14.00,2013-07-24 02:42:00,
2013-07-23 21:47:00,90.7,73.9,29.78,SSW,204,0.0,0.0,58,0.00,,---,0.00,VWS V14.00,2013-07-24 02:47:00,
2013-07-23 21:54:00,90.8,74.0,29.78,SW,226,0.0,0.0,58,0.00,,---,0.00,VWS V14.00,2013-07-24 02:54:00,
2013-07-23 21:59:00,90.8,74.0,29.78,SW,230,0.0,0.0,58,0.00,,---,0.00,VWS V14.00,2013-07-24 02:59:00,
2013-07-23 22:04:00,90.8,74.5,29.78,SW,230,0.0,0.0,59,0.00,,---,0.00,VWS V14.00,2013-07-24 03:04:00,
2013-07-23 22:09:00,90.8,74.5,29.78,SW,235,0.0,0.0,59,0.00,,---,0.00,VWS V14.00,2013-07-24 03:09:00,
2013-07-23 22:14:00,90.6,74.3,29.80,WSW,237,0.0,0.0,59,0.00,,---,0.00,VWS V14.00,2013-07-24 03:14:00,
2013-07-23 22:20:00,90.5,74.2,29.80,WSW,237,0.0,0.0,59,0.00,,---,0.00,VWS V14.00,2013-07-24 03:20:00,
2013-07-23 22:26:00,90.4,74.1,29.80,WSW,240,0.0,0.0,59,0.00,,---,0.00,VWS V14.00,2013-07-24 03:26:00,
2013-07-23 22:31:00,90.3,74.5,29.80,WSW,240,0.0,0.0,60,0.00,,---,0.00,VWS V14.00,2013-07-24 03:31:00,
2013-07-23 22:36:00,90.2,74.4,29.80,WSW,240,0.0,0.0,60,0.00,,---,0.00,VWS V14.00,2013-07-24 03:36:00,
2013-07-23 22:41:00,90.1,74.3,29.80,WSW,240,0.0,0.0,60,0.00,,---,0.00,VWS V14.00,2013-07-24 03:41:00,
2013-07-23 22:46:00,90.1,74.3,29.80,WSW,239,0.0,0.0,60,0.00,,---,0.00,VWS V14.00,2013-07-24 03:46:00,
2013-07-23 22:51:00,89.9,74.7,29.80,SSW,205,0.0,0.0,61,0.00,,---,0.00,VWS V14.00,2013-07-24 03:51:00,
2013-07-23 22:56:00,89.7,74.5,29.80,WSW,237,0.0,0.0,61,0.00,,---,0.00,VWS V14.00,2013-07-24 03:56:00,
2013-07-23 23:01:00,89.5,74.8,29.79,WSW,237,0.0,0.0,62,0.00,,---,0.00,VWS V14.00,2013-07-24 04:01:00,
2013-07-23 23:02:00,89.5,74.8,29.79,WSW,237,0.0,0.0,62,0.00,,---,0.00,VWS V14.00,2013-07-24 04:02:00,
2013-07-23 23:04:00,89.4,74.7,29.79,WSW,237,0.0,0.0,62,0.00,,---,0.00,VWS V14.00,2013-07-24 04:04:00,
2013-07-23 23:09:00,89.3,74.6,29.79,WSW,237,0.0,0.0,62,0.00,,---,0.00,VWS V14.00,2013-07-24 04:09:00,
2013-07-23 23:12:00,89.3,75.1,29.79,WSW,240,0.0,1.0,63,0.00,,---,0.00,VWS V14.00,2013-07-24 04:12:00,
2013-07-23 23:13:00,89.3,75.1,29.80,WSW,240,0.0,0.0,63,0.00,,---,0.00,VWS V14.00,2013-07-24 04:13:00,
2013-07-23 23:18:00,89.3,75.1,29.80,WSW,240,0.0,0.0,63,0.00,,---,0.00,VWS V14.00,2013-07-24 04:18:00,
2013-07-23 23:23:00,89.2,75.0,29.80,WSW,240,0.0,0.0,63,0.00,,---,0.00,VWS V14.00,2013-07-24 04:23:00,
2013-07-23 23:28:00,89.2,75.0,29.81,WSW,241,0.0,1.0,63,0.00,,---,0.00,VWS V14.00,2013-07-24 04:28:00,
2013-07-23 23:33:00,89.2,75.0,29.81,WSW,242,0.0,0.0,63,0.00,,---,0.00,VWS V14.00,2013-07-24 04:33:00,
2013-07-23 23:38:00,89.1,74.9,29.81,WSW,249,0.0,1.0,63,0.00,,---,0.00,VWS V14.00,2013-07-24 04:38:00,
2013-07-23 23:43:00,89.0,75.2,29.83,West,269,0.0,1.0,64,0.00,,---,0.00,VWS V14.00,2013-07-24 04:43:00,
2013-07-23 23:48:00,82.1,69.2,29.83,NE,36,21.0,34.0,65,0.01,,---,0.01,VWS V14.00,2013-07-24 04:48:00,
2013-07-23 23:53:00,72.9,65.3,29.83,NE,39,11.0,24.0,77,0.09,,---,0.09,VWS V14.00,2013-07-24 04:53:00,
2013-07-23 23:58:00,69.2,65.5,29.94,North,354,13.0,29.0,88,0.31,,---,0.00,VWS V14.00,2013-07-24 04:58:00,